Time;durP1;ratioP1;P1;durP2;ratioP2;P2;SDS_P1;SDS_P2;PMS_P1;PMS_P2;Temp;Humidity;BMP_temperature;BMP_pressure;BME280_temperature;BME280_humidity;BME280_pressure;Samples;Min_cycle;Max_cycle;Signal;HPM_P1;HPM_P2
2022/04/22 00:01:16;;;;;;;34.53;16.73;;;;;;;19.76;41.67;101394.72;5092522;28;20047;-77
2022/04/22 00:03:41;;;;;;;27.65;16.10;;;;;;;19.92;41.47;101392.72;5091206;28;20090;-77
2022/04/22 00:06:07;;;;;;;28.33;15.18;;;;;;;20.10;41.11;101389.53;5091194;28;20036;-77
2022/04/22 00:08:33;;;;;;;27.20;14.88;;;;;;;19.90;41.41;101389.50;5092065;28;20032;-77
2022/04/22 00:13:44;;;;;;;28.10;14.95;;;;;;;19.78;41.68;101389.63;5096905;28;20089;-76
2022/04/22 00:16:10;;;;;;;19.92;12.88;;;;;;;19.57;42.06;101389.09;5095048;28;20035;-77
2022/04/22 00:18:37;;;;;;;27.77;15.88;;;;;;;19.49;42.36;101388.06;5076214;28;20052;-77
2022/04/22 00:21:03;;;;;;;23.52;14.57;;;;;;;19.72;41.87;101395.78;5076166;28;20034;-75
2022/04/22 00:23:28;;;;;;;31.38;15.23;;;;;;;19.53;42.51;101399.25;5076004;28;20119;-76
2022/04/22 00:25:55;;;;;;;25.40;14.52;;;;;;;19.54;42.28;101395.31;5076164;28;20103;-76
2022/04/22 00:28:22;;;;;;;25.38;15.38;;;;;;;19.69;41.86;101389.00;5076064;28;20028;-76
2022/04/22 00:30:47;;;;;;;23.33;13.77;;;;;;;19.75;41.49;101393.13;5076012;28;20449;-76
2022/04/22 00:33:17;;;;;;;21.25;13.60;;;;;;;19.74;41.31;101391.50;5075970;28;20025;-76
2022/04/22 00:35:44;;;;;;;26.67;14.60;;;;;;;19.35;42.08;101388.53;5075841;28;20540;-75
2022/04/22 00:38:09;;;;;;;24.75;13.10;;;;;;;19.33;42.19;101373.41;5075844;28;20029;-76
2022/04/22 00:40:35;;;;;;;21.80;13.13;;;;;;;19.21;42.12;101371.56;5075813;28;20069;-76
2022/04/22 00:43:18;;;;;;;20.73;13.20;;;;;;;19.25;42.23;101369.66;5075512;28;20051;-76
2022/04/22 00:45:44;;;;;;;22.85;12.65;;;;;;;19.09;42.26;101380.72;5075774;28;20028;-75
2022/04/22 00:48:10;;;;;;;28.52;12.43;;;;;;;19.03;42.44;101382.13;5093334;28;20051;-76
2022/04/22 00:50:37;;;;;;;27.35;13.38;;;;;;;19.22;41.59;101380.66;5095815;28;20109;-76
2022/04/22 00:53:03;;;;;;;18.08;12.27;;;;;;;19.34;41.61;101386.09;5095836;28;20021;-75
2022/04/22 00:55:30;;;;;;;17.63;11.63;;;;;;;19.27;41.57;101378.44;5095750;28;20022;-76
2022/04/22 00:57:56;;;;;;;20.17;12.07;;;;;;;19.28;41.47;101380.03;5095735;28;20028;-76
2022/04/22 01:00:21;;;;;;;23.42;11.27;;;;;;;19.03;41.91;101373.84;5076480;28;20032;-75
2022/04/22 01:02:47;;;;;;;20.48;11.20;;;;;;;18.98;42.07;101374.09;5075221;28;20395;-76
2022/04/22 01:10:42;;;;;;;27.45;11.73;;;;;;;18.96;42.22;101381.94;5095825;28;20511;-76
2022/04/22 01:13:09;;;;;;;26.90;12.60;;;;;;;18.54;43.22;101376.81;5094144;28;20486;-76
2022/04/22 01:15:36;;;;;;;21.77;11.38;;;;;;;18.92;42.15;101383.03;5095454;28;20028;-76
2022/04/22 01:18:01;;;;;;;25.58;12.18;;;;;;;19.04;42.03;101388.47;5095397;28;20028;-76
2022/04/22 01:20:27;;;;;;;25.05;12.25;;;;;;;19.33;41.17;101399.16;5095332;28;20027;-75
2022/04/22 01:22:53;;;;;;;21.70;12.18;;;;;;;19.27;41.37;101392.28;5094010;28;20420;-76
2022/04/22 01:25:18;;;;;;;21.55;12.55;;;;;;;19.27;41.47;101391.47;5095210;28;20034;-76
2022/04/22 01:27:51;;;;;;;30.63;11.63;;;;;;;19.18;41.59;101388.88;5095253;28;20047;-75
2022/04/22 01:30:21;;;;;;;22.35;12.55;;;;;;;19.27;41.28;101392.28;5095426;28;20035;-76
2022/04/22 01:32:49;;;;;;;23.70;11.85;;;;;;;19.22;41.38;101395.31;5095096;28;20389;-76
2022/04/22 01:35:14;;;;;;;22.40;11.75;;;;;;;19.51;40.83;101396.84;5088702;28;20039;-75
2022/04/22 01:37:42;;;;;;;20.67;11.38;;;;;;;19.32;41.21;101386.47;5074726;28;20029;-76
2022/04/22 01:40:08;;;;;;;18.70;10.95;;;;;;;19.35;41.18;101382.19;5074750;28;20108;-76
2022/04/22 01:42:34;;;;;;;20.45;10.85;;;;;;;19.27;41.14;101380.38;5074395;28;20037;-75
2022/04/22 01:44:59;;;;;;;24.42;12.07;;;;;;;18.98;41.86;101378.84;5073372;28;20033;-75
2022/04/22 01:47:25;;;;;;;18.70;10.52;;;;;;;18.73;42.28;101373.41;5074673;28;20020;-76
2022/04/22 01:49:50;;;;;;;25.65;11.98;;;;;;;18.45;42.75;101365.09;5073174;28;20032;-76
2022/04/22 01:52:16;;;;;;;16.92;8.90;;;;;;;18.69;42.17;101364.22;5074539;28;20021;-75
2022/04/22 01:54:42;;;;;;;25.15;11.32;;;;;;;18.69;42.17;101355.91;5074529;28;20524;-75
2022/04/22 01:57:07;;;;;;;25.17;11.60;;;;;;;18.91;41.83;101357.31;5074420;28;20028;-76
2022/04/22 01:59:33;;;;;;;26.33;10.75;;;;;;;18.69;42.29;101361.44;5073109;28;20177;-75
2022/04/22 02:01:59;;;;;;;20.92;9.00;;;;;;;18.58;42.28;101349.22;5074244;28;20032;-75
2022/04/22 02:04:25;;;;;;;25.25;11.27;;;;;;;18.86;41.59;101352.00;5074286;28;20025;-76
2022/04/22 02:06:50;;;;;;;19.25;9.15;;;;;;;18.51;42.45;101346.25;5093063;28;20074;-76
2022/04/22 02:09:16;;;;;;;17.63;10.00;;;;;;;18.66;42.17;101351.06;5094430;28;20032;-75
2022/04/22 02:11:41;;;;;;;26.00;11.60;;;;;;;18.66;42.30;101355.78;5094326;28;20153;-77
2022/04/22 02:14:08;;;;;;;21.05;10.23;;;;;;;18.82;41.83;101354.69;5084053;28;20031;-77
2022/04/22 02:16:34;;;;;;;23.65;10.23;;;;;;;18.96;41.46;101359.00;5074078;28;20059;-75
2022/04/22 02:18:59;;;;;;;23.92;9.93;;;;;;;19.02;41.33;101368.66;5073921;28;20060;-75
2022/04/22 02:21:25;;;;;;;19.67;10.25;;;;;;;19.07;41.39;101371.97;5074064;28;20036;-75
2022/04/22 02:23:53;;;;;;;20.23;9.13;;;;;;;18.89;41.70;101378.97;5093430;28;20482;-75
2022/04/22 02:26:19;;;;;;;23.40;10.02;;;;;;;18.83;41.77;101384.00;5094089;28;20493;-75
2022/04/22 02:28:44;;;;;;;17.40;9.43;;;;;;;18.81;41.99;101380.75;5093592;28;20112;-76
2022/04/22 02:31:11;;;;;;;26.77;10.27;;;;;;;18.97;41.98;101380.81;5093716;28;20028;-74
2022/04/22 02:33:39;;;;;;;19.33;8.75;;;;;;;18.63;42.86;101386.94;5093705;28;20040;-74
2022/04/22 02:36:06;;;;;;;22.92;8.68;;;;;;;18.81;42.29;101379.94;5079960;28;20123;-75
2022/04/22 02:38:33;;;;;;;21.63;9.85;;;;;;;18.87;41.60;101369.44;5073605;28;20043;-75
2022/04/22 02:46:28;;;;;;;25.77;9.98;;;;;;;18.84;41.59;101376.50;5073438;28;20395;-76
2022/04/22 02:49:00;;;;;;;16.95;10.05;;;;;;;18.99;41.44;101377.69;5350897;22;20425;-75
2022/04/22 02:51:27;;;;;;;21.67;8.77;;;;;;;19.27;40.97;101375.66;5072723;28;20027;-75
2022/04/22 02:53:53;;;;;;;22.63;10.50;;;;;;;18.88;41.75;101380.16;5073343;28;20029;-75
2022/04/22 02:56:20;;;;;;;30.13;11.00;;;;;;;19.07;41.37;101387.78;5073635;28;20063;-74
2022/04/22 02:58:46;;;;;;;22.25;10.95;;;;;;;19.06;41.33;101395.28;5073301;28;20390;-74
2022/04/22 03:01:14;;;;;;;23.67;11.32;;;;;;;18.74;42.33;101390.81;5073311;28;20028;-74
2022/04/22 03:03:43;;;;;;;18.33;10.68;;;;;;;18.71;42.19;101386.00;5073048;28;20044;-74
2022/04/22 03:06:08;;;;;;;17.70;9.88;;;;;;;18.79;41.68;101385.84;5073185;28;20025;-75
2022/04/22 03:08:34;;;;;;;16.13;9.73;;;;;;;18.52;42.49;101376.38;5073386;28;20489;-74
2022/04/22 03:11:00;;;;;;;20.90;9.68;;;;;;;18.63;42.19;101378.63;5073354;28;20363;-75
2022/04/22 03:13:26;;;;;;;16.27;10.68;;;;;;;18.57;42.15;101386.38;5072837;28;20066;-74
2022/04/22 03:15:52;;;;;;;26.08;12.02;;;;;;;18.93;41.37;101392.94;5073049;28;20029;-75
2022/04/22 03:18:19;;;;;;;18.42;11.38;;;;;;;19.09;40.80;101393.78;5073005;28;20029;-75
2022/04/22 03:20:45;;;;;;;27.15;11.82;;;;;;;19.17;40.61;101398.34;5073211;28;20032;-74
2022/04/22 03:23:10;;;;;;;25.55;12.25;;;;;;;19.25;40.55;101388.25;5072763;28;20406;-74
2022/04/22 03:25:36;;;;;;;26.02;13.15;;;;;;;19.15;41.03;101392.34;5072841;28;20099;-74
2022/04/22 03:28:04;;;;;;;23.77;11.93;;;;;;;18.99;41.82;101394.31;5072867;28;20024;-74
2022/04/22 03:30:31;;;;;;;20.40;13.05;;;;;;;18.95;42.01;101396.16;5071534;28;20474;-74
2022/04/22 03:32:57;;;;;;;31.17;16.25;;;;;;;18.87;42.75;101384.06;5072458;28;20025;-76
2022/04/22 03:35:22;;;;;;;34.42;18.65;;;;;;;19.00;42.37;101370.97;5072740;28;20031;-76
2022/04/22 03:37:48;;;;;;;32.67;17.85;;;;;;;18.92;43.01;101380.25;5072704;28;20059;-75
2022/04/22 03:40:14;;;;;;;33.60;17.30;;;;;;;19.02;42.79;101380.53;5072692;28;20028;-74
2022/04/22 03:42:41;;;;;;;30.23;17.13;;;;;;;18.71;43.90;101381.25;5072354;28;20036;-74
2022/04/22 03:45:07;;;;;;;39.20;19.58;;;;;;;18.60;44.18;101380.13;5071910;28;20021;-74
2022/04/22 03:47:32;;;;;;;36.50;20.13;;;;;;;18.53;44.39;101377.97;5072346;28;20016;-76
2022/04/22 03:49:58;;;;;;;39.20;19.27;;;;;;;18.88;43.53;101374.59;5072908;28;20082;-74
2022/04/22 03:52:24;;;;;;;39.65;20.55;;;;;;;18.72;43.94;101371.00;5072065;28;20051;-75
2022/04/22 03:54:49;;;;;;;37.60;18.92;;;;;;;18.52;44.52;101362.53;5072505;28;20031;-74
2022/04/22 03:59:59;;;;;;;33.00;19.52;;;;;;;18.28;45.22;101357.06;5072533;28;20401;-74
2022/04/22 04:02:25;;;;;;;33.63;18.67;;;;;;;18.26;45.45;101362.94;5072301;28;20021;-74
2022/04/22 04:04:51;;;;;;;32.83;17.58;;;;;;;18.16;45.87;101363.44;5072437;28;20467;-74
2022/04/22 04:07:17;;;;;;;34.42;17.70;;;;;;;17.96;46.19;101364.38;5072368;28;20021;-74
2022/04/22 04:17:55;;;;;;;31.08;16.92;;;;;;;17.94;46.28;101358.41;5072533;28;20133;-75
2022/04/22 04:23:17;;;;;;;25.85;16.55;;;;;;;17.93;45.99;101352.06;5071697;28;20052;-75
2022/04/22 04:25:46;;;;;;;34.15;18.30;;;;;;;17.90;46.15;101363.81;5072229;28;20031;-75
2022/04/22 04:28:13;;;;;;;28.85;14.32;;;;;;;17.20;47.79;101363.88;5072245;28;20056;-74
2022/04/22 04:30:43;;;;;;;37.17;17.83;;;;;;;17.40;47.66;101370.47;5072207;28;20021;-75
2022/04/22 04:33:09;;;;;;;;;;;;;;;17.11;48.38;101365.94;5072716;28;20017;-75
2022/04/22 04:35:35;;;;;;;32.95;18.50;;;;;;;17.38;48.08;101367.25;5072081;28;19997;-75
2022/04/22 04:38:02;;;;;;;30.73;16.67;;;;;;;17.41;47.93;101376.81;5072109;28;20074;-76
2022/04/22 04:40:28;;;;;;;33.45;16.45;;;;;;;17.41;47.75;101372.09;5071873;28;20052;-75
2022/04/22 04:42:53;;;;;;;34.58;16.90;;;;;;;17.53;47.81;101371.28;5071717;28;20170;-74
2022/04/22 04:45:20;;;;;;;30.27;17.30;;;;;;;17.43;47.81;101360.69;5072040;28;20024;-75
2022/04/22 04:47:46;;;;;;;31.48;17.42;;;;;;;17.44;47.63;101371.38;5071771;28;20031;-75
2022/04/22 04:50:12;;;;;;;36.85;18.05;;;;;;;17.80;46.79;101366.25;5071830;28;20037;-75
2022/04/22 04:52:39;;;;;;;38.55;17.10;;;;;;;17.60;47.23;101370.72;5071753;28;20390;-75
2022/04/22 04:55:11;;;;;;;37.47;18.27;;;;;;;17.66;47.57;101363.81;5072232;28;20481;-75
2022/04/22 04:57:37;;;;;;;32.00;16.83;;;;;;;17.36;48.30;101371.50;5075501;28;20506;-74
2022/04/22 05:00:07;;;;;;;27.10;15.88;;;;;;;16.51;50.27;101363.75;5075625;28;20030;-75
2022/04/22 05:02:32;;;;;;;;;;;;;;;16.82;49.13;101377.13;5075443;28;20035;-76
2022/04/22 05:04:58;;;;;;;30.77;16.48;;;;;;;16.86;49.11;101372.56;5075555;28;19912;-74
2022/04/22 05:07:23;;;;;;;26.42;15.27;;;;;;;16.84;49.21;101377.59;5075460;28;20098;-75
2022/04/22 05:09:49;;;;;;;34.80;16.95;;;;;;;17.13;48.35;101384.91;5075397;28;20032;-75
2022/04/22 05:12:15;;;;;;;36.95;17.67;;;;;;;17.39;47.78;101384.66;5075005;28;20024;-76
2022/04/22 05:14:40;;;;;;;33.83;15.63;;;;;;;17.50;47.04;101382.22;5075374;28;20032;-76
2022/04/22 05:17:06;;;;;;;33.50;18.70;;;;;;;16.96;48.46;101383.16;5075266;28;20575;-74
2022/04/22 05:19:32;;;;;;;34.45;17.63;;;;;;;17.28;47.83;101377.94;5075268;28;20097;-75
2022/04/22 05:21:57;;;;;;;32.20;17.05;;;;;;;17.13;48.22;101377.44;5075106;28;20016;-76
2022/04/22 05:24:23;;;;;;;28.85;18.33;;;;;;;17.46;47.40;101373.84;5074864;28;20025;-75
2022/04/22 05:26:48;;;;;;;33.10;17.42;;;;;;;17.36;47.29;101383.34;5075103;28;20021;-75
2022/04/22 05:34:42;;;;;;;33.83;16.17;;;;;;;17.13;47.61;101401.50;5055041;28;20039;-75
2022/04/22 05:37:08;;;;;;;25.75;14.82;;;;;;;17.61;46.44;101384.19;5055091;28;20021;-74
2022/04/22 05:39:34;;;;;;;24.15;14.05;;;;;;;17.34;46.75;101382.09;5054887;28;20025;-75
2022/04/22 05:42:01;;;;;;;30.42;14.63;;;;;;;17.68;45.87;101378.06;5070783;28;20375;-77
2022/04/22 05:44:27;;;;;;;25.23;13.35;;;;;;;16.85;47.79;101369.00;5074373;28;20082;-76
2022/04/22 05:46:53;;;;;;;26.83;13.90;;;;;;;17.03;47.82;101383.41;5074818;28;20016;-77
2022/04/22 05:49:19;;;;;;;21.95;13.13;;;;;;;17.09;47.49;101384.81;5074601;28;20052;-77
2022/04/22 05:51:45;;;;;;;25.98;12.80;;;;;;;17.46;46.33;101385.69;5074899;28;20402;-75
2022/04/22 05:54:10;;;;;;;27.05;12.18;;;;;;;17.55;46.27;101374.53;5074359;28;20028;-77
2022/04/22 05:56:36;;;;;;;26.17;12.52;;;;;;;17.90;45.41;101383.16;5074530;28;20421;-76
2022/04/22 05:59:03;;;;;;;20.38;11.85;;;;;;;18.09;44.75;101390.88;5074547;28;20021;-75
2022/04/22 06:01:28;;;;;;;27.73;10.52;;;;;;;17.95;44.84;101382.94;5074543;28;20039;-77
2022/04/22 06:03:54;;;;;;;22.80;11.48;;;;;;;18.10;44.32;101381.41;5074143;28;20452;-76
2022/04/22 06:06:20;;;;;;;28.08;11.93;;;;;;;17.37;45.74;101389.69;5074291;28;20033;-76
2022/04/22 06:11:31;;;;;;;17.38;10.25;;;;;;;17.87;43.91;101389.41;5074683;28;20031;-75
2022/04/22 06:13:56;;;;;;;16.75;9.50;;;;;;;17.92;43.75;101380.06;5073919;28;20162;-75
2022/04/22 06:16:22;;;;;;;20.58;9.88;;;;;;;17.49;45.03;101378.66;5073779;28;20108;-78
2022/04/22 06:18:47;;;;;;;22.15;11.07;;;;;;;18.01;43.62;101377.97;5074174;28;20100;-77
2022/04/22 06:21:13;;;;;;;20.65;8.60;;;;;;;18.43;43.02;101385.94;5073644;28;20024;-78
2022/04/22 06:23:39;;;;;;;20.35;8.00;;;;;;;18.39;43.03;101380.31;5073383;28;20044;-76
2022/04/22 06:26:05;;;;;;;21.30;7.68;;;;;;;18.18;43.26;101388.78;5073992;28;20027;-77
2022/04/22 06:28:31;;;;;;;23.83;8.30;;;;;;;17.13;45.67;101387.69;5073911;28;20020;-76
2022/04/22 06:30:57;;;;;;;20.52;7.30;;;;;;;17.50;44.39;101399.59;5073870;28;20024;-76
2022/04/22 06:33:23;;;;;;;18.88;7.75;;;;;;;17.89;43.35;101389.84;5073102;28;20027;-76
2022/04/22 06:35:49;;;;;;;22.85;8.32;;;;;;;17.89;43.23;101383.50;5073875;28;20028;-78
2022/04/22 06:38:16;;;;;;;18.30;8.00;;;;;;;17.96;43.45;101383.75;5072856;28;20031;-78
2022/04/22 06:46:12;;;;;;;18.20;6.30;;;;;;;17.41;45.22;101383.13;5059510;28;20067;-78
2022/04/22 06:48:38;;;;;;;14.73;7.65;;;;;;;17.81;44.31;101379.72;5054343;28;20037;-78
2022/04/22 06:51:07;;;;;;;20.52;7.05;;;;;;;17.71;44.21;101388.50;5073275;28;20028;-78
2022/04/22 06:53:34;;;;;;;19.07;6.63;;;;;;;17.41;45.45;101396.94;5073687;28;20052;-78
2022/04/22 06:56:02;;;;;;;27.00;7.85;;;;;;;17.55;45.10;101393.88;5073802;28;20027;-78
2022/04/22 06:58:30;;;;;;;28.13;8.85;;;;;;;17.72;44.39;101398.38;5073377;28;20032;-78
2022/04/22 07:00:56;;;;;;;19.85;7.72;;;;;;;18.45;42.87;101392.75;5071373;28;20043;-77
2022/04/22 07:03:22;;;;;;;23.02;8.65;;;;;;;18.33;42.87;101391.97;5060693;28;20552;-78
2022/04/22 07:05:49;;;;;;;17.27;7.93;;;;;;;18.20;42.87;101402.25;5071388;28;20130;-78
2022/04/22 07:08:17;;;;;;;15.80;8.00;;;;;;;17.57;44.01;101397.09;5071407;28;20016;-78
2022/04/22 07:10:45;;;;;;;15.85;7.00;;;;;;;18.27;42.42;101394.97;5069816;28;20112;-78
2022/04/22 07:13:12;;;;;;;14.88;7.18;;;;;;;18.10;43.33;101389.72;5071608;28;20020;-77
2022/04/22 07:15:39;;;;;;;34.25;9.15;;;;;;;18.11;43.24;101394.09;5071544;28;20024;-78
2022/04/22 07:18:06;;;;;;;30.05;8.80;;;;;;;17.98;43.62;101386.97;5071401;28;20024;-78
2022/04/22 07:20:32;;;;;;;21.27;7.57;;;;;;;18.13;43.56;101383.47;5070616;28;20020;-77
2022/04/22 07:22:59;;;;;;;14.05;7.40;;;;;;;18.29;43.12;101375.28;5071001;28;20504;-77
2022/04/22 07:25:26;;;;;;;15.30;7.03;;;;;;;18.25;43.41;101374.34;5071514;28;20025;-77
2022/04/22 07:27:52;;;;;;;16.52;6.80;;;;;;;18.64;42.71;101375.50;5069049;28;20669;-78
2022/04/22 07:30:20;;;;;;;19.05;8.40;;;;;;;18.07;43.88;101384.91;5070867;28;20115;-77
2022/04/22 07:32:46;;;;;;;14.50;6.82;;;;;;;18.34;43.65;101377.78;5070928;28;20367;-78
2022/04/22 07:35:13;;;;;;;16.65;6.43;;;;;;;18.23;43.81;101391.31;5071140;28;20027;-78
2022/04/22 07:37:40;;;;;;;21.30;7.88;;;;;;;19.00;42.37;101370.97;5071012;28;20021;-78
2022/04/22 07:40:06;;;;;;;20.45;7.60;;;;;;;18.62;43.43;101366.75;5070828;28;20096;-77
2022/04/22 07:42:34;;;;;;;17.75;8.25;;;;;;;19.44;42.02;101365.38;5069665;28;20105;-79
2022/04/22 07:47:50;;;;;;;18.03;6.83;;;;;;;18.22;44.02;101353.75;5069107;28;20154;-77
2022/04/22 07:50:17;;;;;;;22.73;6.90;;;;;;;18.53;43.52;101377.97;5070430;28;20033;-77
2022/04/22 07:52:44;;;;;;;28.27;8.02;;;;;;;18.65;43.08;101371.56;5070721;28;20029;-77
2022/04/22 07:55:13;;;;;;;26.17;7.93;;;;;;;19.15;42.43;101372.97;5069346;28;20016;-77
2022/04/22 07:57:40;;;;;;;16.10;7.20;;;;;;;19.23;42.70;101376.72;5070660;28;20043;-78
2022/04/22 08:00:10;;;;;;;28.08;8.82;;;;;;;19.08;43.43;101379.13;5071149;28;20471;-77
2022/04/22 08:02:40;;;;;;;19.73;8.02;;;;;;;19.18;43.11;101366.69;5071086;28;20074;-77
2022/04/22 08:05:11;;;;;;;22.58;8.15;;;;;;;19.72;42.25;101377.19;5071019;28;20040;-78
2022/04/22 08:07:37;;;;;;;24.23;7.95;;;;;;;19.90;41.96;101370.09;5070934;28;20020;-77
2022/04/22 08:10:03;;;;;;;18.27;6.97;;;;;;;19.28;42.85;101362.63;5070909;28;20028;-78
2022/04/22 08:12:28;;;;;;;23.70;7.57;;;;;;;19.69;41.99;101366.81;5071932;28;20082;-77
2022/04/22 08:14:54;;;;;;;17.73;6.65;;;;;;;19.87;41.26;101362.47;5071009;28;20044;-77
2022/04/22 08:17:20;;;;;;;23.42;8.50;;;;;;;20.01;41.54;101362.00;5071497;28;20029;-77
2022/04/22 08:19:46;;;;;;;21.02;7.30;;;;;;;20.07;41.54;101360.56;5071116;28;20024;-77
2022/04/22 08:22:12;;;;;;;17.63;6.93;;;;;;;20.26;41.20;101361.78;5071186;28;20039;-78
2022/04/22 08:24:39;;;;;;;19.25;6.40;;;;;;;20.03;41.20;101370.78;5069374;28;20029;-78
2022/04/22 08:27:06;;;;;;;25.98;7.65;;;;;;;20.14;40.68;101357.94;5069661;28;20052;-83
2022/04/22 08:29:33;;;;;;;15.90;6.90;;;;;;;20.26;40.29;101359.00;5070180;28;20044;-82
2022/04/22 08:31:58;;;;;;;18.83;6.85;;;;;;;20.20;40.29;101369.56;5071503;28;20474;-82
2022/04/22 08:34:24;;;;;;;19.48;6.75;;;;;;;20.48;39.87;101361.88;5045924;28;20025;-81
2022/04/22 08:36:50;;;;;;;22.65;7.28;;;;;;;20.84;39.44;101367.31;5040153;28;20033;-81
2022/04/22 08:39:17;;;;;;;21.63;7.57;;;;;;;20.29;40.97;101359.06;5038400;28;20029;-80
2022/04/22 08:41:42;;;;;;;20.65;7.00;;;;;;;20.20;41.07;101361.25;5038090;28;20067;-82
2022/04/22 08:44:12;;;;;;;20.83;8.10;;;;;;;20.02;41.38;101369.16;5046741;28;20082;-81
2022/04/22 08:52:10;;;;;;;20.40;7.25;;;;;;;20.29;41.30;101359.06;5071724;28;20090;-81
2022/04/22 08:54:38;;;;;;;27.58;9.27;;;;;;;20.53;40.34;101359.97;5072926;28;20403;-82
2022/04/22 08:57:04;;;;;;;17.85;7.95;;;;;;;19.75;41.37;101356.25;5071910;28;21116;-80
2022/04/22 08:59:30;;;;;;;39.35;9.55;;;;;;;19.82;41.60;101365.56;5073782;28;20021;-81
2022/04/22 09:01:56;;;;;;;20.17;8.02;;;;;;;19.94;41.68;101362.66;5073563;28;20028;-82
2022/04/22 09:04:22;;;;;;;23.15;9.40;;;;;;;20.04;42.22;101369.63;5063408;28;20057;-82
2022/04/22 09:06:50;;;;;;;16.08;7.20;;;;;;;19.94;42.16;101367.41;5072771;28;20406;-83
2022/04/22 09:09:18;;;;;;;18.35;8.15;;;;;;;19.62;43.33;101361.09;5073039;28;20020;-78
2022/04/22 09:11:44;;;;;;;30.55;8.93;;;;;;;19.51;43.52;101362.78;5073329;28;20028;-80
2022/04/22 09:14:21;;;;;;;14.43;8.18;;;;;;;19.42;43.08;101365.72;5065773;28;20494;-78
2022/04/22 09:16:48;;;;;;;18.17;7.28;;;;;;;18.85;44.41;101355.94;5072930;28;20032;-85
2022/04/22 09:19:18;;;;;;;22.67;8.20;;;;;;;18.62;44.91;101358.44;5072481;28;20074;-77
2022/04/22 09:22:00;;;;;;;19.05;8.68;;;;;;;19.23;43.82;101355.38;5071170;28;20047;-76
2022/04/22 09:24:26;;;;;;;19.88;7.03;;;;;;;19.38;43.79;101360.09;5072299;28;20103;-80
2022/04/22 09:27:10;;;;;;;18.38;8.63;;;;;;;19.76;42.28;101336.50;5070951;28;20119;-76
2022/04/22 09:29:51;;;;;;;22.67;9.10;;;;;;;19.88;42.23;101330.84;5073325;28;20463;-77
2022/04/22 09:32:27;;;;;;;18.83;7.30;;;;;;;19.94;41.62;101342.44;5072445;28;20048;-82
2022/04/22 09:34:58;;;;;;;17.35;8.52;;;;;;;19.69;42.25;101339.09;5071971;28;20020;-84
2022/04/22 09:42:58;;;;;;;17.00;9.52;;;;;;;19.80;42.22;101354.03;5071309;28;20031;-84
2022/04/22 09:45:38;;;;;;;18.75;7.65;;;;;;;18.67;44.15;101346.34;5071575;28;20418;-82
2022/04/22 09:48:13;;;;;;;15.35;6.72;;;;;;;18.62;44.61;101349.34;5070442;28;20257;-80
2022/04/22 09:50:45;;;;;;;20.33;9.07;;;;;;;19.04;43.73;101345.00;5073021;28;20039;-90
2022/04/22 09:53:13;;;;;;;18.40;7.90;;;;;;;19.25;43.19;101346.69;5056899;28;20446;-83
2022/04/22 09:55:53;;;;;;;17.83;9.20;;;;;;;18.95;43.64;101346.31;5069990;28;20103;-81
2022/04/22 09:58:22;;;;;;;;;;;;;;;18.70;44.22;101354.75;5072590;28;20041;-83
2022/04/22 10:00:53;;;;;;;18.88;7.68;;;;;;;18.85;43.97;101344.88;5072163;28;19912;-80
2022/04/22 10:03:19;;;;;;;18.00;8.15;;;;;;;18.82;43.85;101345.59;5072097;28;20064;-81
2022/04/22 10:05:48;;;;;;;19.65;9.02;;;;;;;19.45;42.75;101342.06;5071731;28;20036;-82
2022/04/22 10:08:17;;;;;;;26.10;9.10;;;;;;;18.91;44.08;101335.16;5071942;28;20039;-77
2022/04/22 10:10:42;;;;;;;20.50;7.78;;;;;;;19.15;43.58;101319.53;5071449;28;20100;-81
2022/04/22 10:13:16;;;;;;;22.65;9.50;;;;;;;18.63;44.84;101332.38;5059898;28;20155;-82
2022/04/22 10:15:44;;;;;;;23.42;8.38;;;;;;;19.33;43.06;101337.41;5056376;28;20032;-78
2022/04/22 10:18:13;;;;;;;22.92;8.43;;;;;;;20.01;42.09;101339.03;5070182;28;20027;-79
2022/04/22 10:20:40;;;;;;;27.27;8.73;;;;;;;18.81;44.75;101324.56;5073053;28;20146;-79
2022/04/22 10:23:06;;;;;;;23.17;7.90;;;;;;;19.10;44.01;101331.66;5071991;28;20481;-80
2022/04/22 10:25:33;;;;;;;19.65;8.38;;;;;;;18.67;45.02;101313.16;5071041;28;20039;-79
2022/04/22 10:28:03;;;;;;;23.20;8.95;;;;;;;18.67;45.01;101308.41;5070790;28;20021;-79
2022/04/22 10:30:31;;;;;;;19.70;7.40;;;;;;;19.23;44.05;101308.28;5069609;28;20056;-79
2022/04/22 10:32:57;;;;;;;16.95;7.95;;;;;;;19.39;43.82;101300.75;5070890;28;20029;-80
2022/04/22 10:35:23;;;;;;;19.40;8.57;;;;;;;19.58;43.05;101318.66;5071199;28;20043;-80
2022/04/22 10:37:52;;;;;;;20.48;7.97;;;;;;;19.86;42.57;101326.81;5068121;28;20095;-80
2022/04/22 10:40:22;;;;;;;13.27;6.75;;;;;;;18.90;44.11;101319.69;5065890;28;20028;-79
2022/04/22 10:42:51;;;;;;;16.52;8.18;;;;;;;18.33;45.43;101331.91;5071584;28;20033;-79
2022/04/22 10:48:29;;;;;;;17.40;7.25;;;;;;;18.32;46.23;101327.53;5071383;28;20094;-80
2022/04/22 10:51:03;;;;;;;21.05;8.45;;;;;;;18.77;45.23;101307.88;5071028;28;20032;-79
2022/04/22 10:53:39;;;;;;;28.83;9.00;;;;;;;18.62;45.51;101319.69;5071480;28;20030;-79
2022/04/22 10:56:33;;;;;;;19.02;6.93;;;;;;;18.68;45.62;101318.31;5067800;28;20027;-79
2022/04/22 10:59:20;;;;;;;18.55;7.05;;;;;;;18.73;45.58;101317.25;5068887;28;20032;-79
2022/04/22 11:01:46;;;;;;;21.45;8.30;;;;;;;19.06;45.34;101316.94;5069455;28;20025;-80
2022/04/22 11:04:19;;;;;;;16.67;7.43;;;;;;;19.33;44.22;101313.25;5070437;28;20035;-79
2022/04/22 11:06:45;;;;;;;24.17;8.82;;;;;;;19.48;44.27;101319.94;5071598;28;20027;-80
2022/04/22 11:09:32;;;;;;;16.95;6.85;;;;;;;19.40;44.03;101318.19;5070362;28;20028;-79
2022/04/22 11:11:59;;;;;;;17.58;7.40;;;;;;;19.75;43.06;101323.00;5070219;28;20027;-79
2022/04/22 11:14:27;;;;;;;23.02;8.43;;;;;;;19.63;43.04;101312.81;5071293;28;20028;-80
2022/04/22 11:16:54;;;;;;;22.67;7.25;;;;;;;19.50;43.44;101312.09;5071324;28;20050;-79
2022/04/22 11:19:20;;;;;;;22.80;6.50;;;;;;;18.92;44.81;101313.81;5071358;28;20021;-78
2022/04/22 11:21:50;;;;;;;21.70;8.55;;;;;;;19.26;43.93;101312.28;5069091;28;20078;-79
2022/04/22 11:24:25;;;;;;;28.83;9.25;;;;;;;20.10;42.51;101315.47;5068892;28;20613;-80
2022/04/22 11:26:52;;;;;;;26.08;7.82;;;;;;;19.55;43.96;101311.81;5069059;28;20048;-79
2022/04/22 11:29:18;;;;;;;18.85;8.45;;;;;;;20.03;43.02;101317.28;5058623;28;20103;-80
2022/04/22 11:32:02;;;;;;;19.92;7.80;;;;;;;20.22;42.52;101311.75;5070771;28;20132;-80
2022/04/22 11:34:42;;;;;;;30.85;8.90;;;;;;;19.76;43.52;101307.97;5069977;28;20081;-79
2022/04/22 11:37:18;;;;;;;17.60;7.13;;;;;;;19.11;44.38;101305.56;5070140;28;20430;-81
2022/04/22 11:39:47;;;;;;;25.90;8.23;;;;;;;19.72;43.11;101288.47;5069445;28;20438;-79
2022/04/22 11:42:13;;;;;;;28.25;8.68;;;;;;;18.94;45.07;101289.31;5071446;28;20409;-81
2022/04/22 11:44:39;;;;;;;17.27;6.43;;;;;;;18.60;46.07;101297.13;5070955;28;20039;-80
2022/04/22 11:47:05;;;;;;;25.25;9.88;;;;;;;19.75;43.51;101284.97;5071351;28;20027;-80
2022/04/22 11:49:35;;;;;;;19.25;7.03;;;;;;;19.17;44.84;101286.72;5071035;28;20036;-81
2022/04/22 11:52:02;;;;;;;27.67;8.23;;;;;;;20.01;43.32;101294.63;5068801;28;20024;-80
2022/04/22 11:54:27;;;;;;;25.33;8.13;;;;;;;19.55;44.24;101295.19;5071249;28;20060;-81
2022/04/22 11:56:53;;;;;;;22.58;8.73;;;;;;;19.94;43.74;101281.41;5070009;28;20463;-81
2022/04/22 11:59:21;;;;;;;25.67;7.95;;;;;;;19.13;44.75;101281.13;5059898;28;20025;-81
2022/04/22 12:10:00;;;;;;;19.58;7.57;;;;;;;19.46;44.60;101288.22;5070850;28;20040;-79
2022/04/22 12:12:28;;;;;;;24.05;8.18;;;;;;;20.04;43.49;101286.41;5064296;28;20024;-79
2022/04/22 12:15:06;;;;;;;21.17;8.23;;;;;;;20.62;41.70;101282.81;5070919;28;20042;-79
2022/04/22 12:17:32;;;;;;;18.80;8.68;;;;;;;20.20;43.02;101289.91;5071095;28;20040;-78
2022/04/22 12:19:58;;;;;;;21.92;8.27;;;;;;;20.11;42.86;101282.97;5071731;28;20028;-79
2022/04/22 12:22:25;;;;;;;21.63;8.38;;;;;;;19.87;43.59;101276.50;5071413;28;20032;-79